sensor_id;sensor_type;location;lat;lon;timestamp;P1;durP1;ratioP1;P2;durP2;ratioP2
22965;SDS011;11649;48.090;9.754;2022-07-23T00:00:16;11.50;;;6.82;;
22965;SDS011;11649;48.090;9.754;2022-07-23T00:02:44;8.02;;;6.75;;
22965;SDS011;11649;48.090;9.754;2022-07-23T00:05:11;10.55;;;7.50;;
22965;SDS011;11649;48.090;9.754;2022-07-23T00:07:38;11.20;;;6.57;;
22965;SDS011;11649;48.090;9.754;2022-07-23T00:10:06;9.18;;;7.07;;
22965;SDS011;11649;48.090;9.754;2022-07-23T00:12:33;8.65;;;6.57;;
22965;SDS011;11649;48.090;9.754;2022-07-23T00:15:17;9.65;;;6.78;;
22965;SDS011;11649;48.090;9.754;2022-07-23T00:17:45;7.22;;;6.35;;
22965;SDS011;11649;48.090;9.754;2022-07-23T00:20:15;7.88;;;6.30;;
22965;SDS011;11649;48.090;9.754;2022-07-23T00:22:49;7.55;;;6.47;;
22965;SDS011;11649;48.090;9.754;2022-07-23T00:25:17;6.80;;;6.20;;
22965;SDS011;11649;48.090;9.754;2022-07-23T00:27:57;9.95;;;6.93;;
22965;SDS011;11649;48.090;9.754;2022-07-23T00:30:27;8.00;;;7.20;;
22965;SDS011;11649;48.090;9.754;2022-07-23T00:32:57;7.75;;;6.95;;
22965;SDS011;11649;48.090;9.754;2022-07-23T00:35:26;8.38;;;7.15;;
22965;SDS011;11649;48.090;9.754;2022-07-23T00:37:55;8.18;;;6.90;;
22965;SDS011;11649;48.090;9.754;2022-07-23T00:40:22;7.75;;;6.50;;
22965;SDS011;11649;48.090;9.754;2022-07-23T00:42:49;7.22;;;6.53;;
22965;SDS011;11649;48.090;9.754;2022-07-23T00:45:16;9.05;;;6.78;;
22965;SDS011;11649;48.090;9.754;2022-07-23T00:47:43;8.55;;;7.07;;
22965;SDS011;11649;48.090;9.754;2022-07-23T00:50:11;8.02;;;7.15;;
22965;SDS011;11649;48.090;9.754;2022-07-23T00:52:38;8.43;;;7.25;;
22965;SDS011;11649;48.090;9.754;2022-07-23T00:55:07;8.90;;;7.15;;
22965;SDS011;11649;48.090;9.754;2022-07-23T00:57:34;10.55;;;7.10;;
22965;SDS011;11649;48.090;9.754;2022-07-23T01:00:07;8.20;;;7.28;;
22965;SDS011;11649;48.090;9.754;2022-07-23T01:02:36;9.68;;;7.70;;
22965;SDS011;11649;48.090;9.754;2022-07-23T01:05:03;8.40;;;7.22;;
22965;SDS011;11649;48.090;9.754;2022-07-23T01:07:31;8.10;;;7.22;;
22965;SDS011;11649;48.090;9.754;2022-07-23T01:09:58;8.75;;;7.40;;
22965;SDS011;11649;48.090;9.754;2022-07-23T01:12:25;9.35;;;6.90;;
22965;SDS011;11649;48.090;9.754;2022-07-23T01:14:53;8.77;;;7.07;;
22965;SDS011;11649;48.090;9.754;2022-07-23T01:17:25;10.13;;;7.75;;
22965;SDS011;11649;48.090;9.754;2022-07-23T01:19:54;9.95;;;7.90;;
22965;SDS011;11649;48.090;9.754;2022-07-23T01:22:22;10.20;;;7.95;;
22965;SDS011;11649;48.090;9.754;2022-07-23T01:24:50;9.07;;;8.18;;
22965;SDS011;11649;48.090;9.754;2022-07-23T01:27:20;11.65;;;8.48;;
22965;SDS011;11649;48.090;9.754;2022-07-23T01:29:49;10.57;;;8.45;;
22965;SDS011;11649;48.090;9.754;2022-07-23T01:32:16;9.45;;;8.45;;
22965;SDS011;11649;48.090;9.754;2022-07-23T01:34:43;10.57;;;8.00;;
22965;SDS011;11649;48.090;9.754;2022-07-23T01:37:10;10.00;;;8.40;;
22965;SDS011;11649;48.090;9.754;2022-07-23T01:39:37;15.25;;;8.60;;
22965;SDS011;11649;48.090;9.754;2022-07-23T01:42:04;9.15;;;8.10;;
22965;SDS011;11649;48.090;9.754;2022-07-23T01:44:33;9.88;;;8.65;;
22965;SDS011;11649;48.090;9.754;2022-07-23T01:47:03;11.48;;;8.93;;
22965;SDS011;11649;48.090;9.754;2022-07-23T01:49:33;9.77;;;8.35;;
22965;SDS011;11649;48.090;9.754;2022-07-23T01:52:04;12.32;;;8.30;;
22965;SDS011;11649;48.090;9.754;2022-07-23T01:54:35;9.45;;;8.35;;
22965;SDS011;11649;48.090;9.754;2022-07-23T01:57:02;8.57;;;7.78;;
22965;SDS011;11649;48.090;9.754;2022-07-23T01:59:32;9.50;;;8.10;;
22965;SDS011;11649;48.090;9.754;2022-07-23T02:02:01;9.23;;;8.10;;
22965;SDS011;11649;48.090;9.754;2022-07-23T02:04:30;12.05;;;8.02;;
22965;SDS011;11649;48.090;9.754;2022-07-23T02:09:32;11.13;;;7.95;;
22965;SDS011;11649;48.090;9.754;2022-07-23T02:12:05;8.43;;;7.50;;
22965;SDS011;11649;48.090;9.754;2022-07-23T02:14:32;8.75;;;7.85;;
22965;SDS011;11649;48.090;9.754;2022-07-23T02:16:59;13.60;;;9.18;;
22965;SDS011;11649;48.090;9.754;2022-07-23T02:19:29;10.80;;;8.15;;
22965;SDS011;11649;48.090;9.754;2022-07-23T02:21:58;10.65;;;8.10;;
22965;SDS011;11649;48.090;9.754;2022-07-23T02:24:28;11.80;;;8.15;;
22965;SDS011;11649;48.090;9.754;2022-07-23T02:26:55;8.90;;;7.97;;
22965;SDS011;11649;48.090;9.754;2022-07-23T02:29:22;10.23;;;8.43;;
22965;SDS011;11649;48.090;9.754;2022-07-23T02:31:49;10.70;;;8.45;;
22965;SDS011;11649;48.090;9.754;2022-07-23T02:34:17;9.50;;;8.50;;
22965;SDS011;11649;48.090;9.754;2022-07-23T02:36:44;8.52;;;7.57;;
22965;SDS011;11649;48.090;9.754;2022-07-23T02:39:11;9.88;;;7.63;;
22965;SDS011;11649;48.090;9.754;2022-07-23T02:41:37;9.18;;;7.20;;
22965;SDS011;11649;48.090;9.754;2022-07-23T02:44:04;9.20;;;6.80;;
22965;SDS011;11649;48.090;9.754;2022-07-23T02:46:34;11.75;;;7.60;;
22965;SDS011;11649;48.090;9.754;2022-07-23T02:49:01;7.88;;;7.00;;
22965;SDS011;11649;48.090;9.754;2022-07-23T02:51:29;8.52;;;7.43;;
22965;SDS011;11649;48.090;9.754;2022-07-23T02:53:56;11.50;;;7.13;;
22965;SDS011;11649;48.090;9.754;2022-07-23T02:56:23;11.38;;;7.60;;
22965;SDS011;11649;48.090;9.754;2022-07-23T02:58:50;7.97;;;7.10;;
22965;SDS011;11649;48.090;9.754;2022-07-23T03:01:19;8.27;;;7.45;;
22965;SDS011;11649;48.090;9.754;2022-07-23T03:03:46;8.63;;;7.10;;
22965;SDS011;11649;48.090;9.754;2022-07-23T03:06:13;9.80;;;7.43;;
22965;SDS011;11649;48.090;9.754;2022-07-23T03:08:40;9.35;;;7.78;;
22965;SDS011;11649;48.090;9.754;2022-07-23T03:11:07;9.32;;;8.38;;
22965;SDS011;11649;48.090;9.754;2022-07-23T03:13:37;9.20;;;7.75;;
22965;SDS011;11649;48.090;9.754;2022-07-23T03:16:05;8.57;;;7.68;;
22965;SDS011;11649;48.090;9.754;2022-07-23T03:18:33;9.43;;;8.40;;
22965;SDS011;11649;48.090;9.754;2022-07-23T03:21:05;9.57;;;8.52;;
22965;SDS011;11649;48.090;9.754;2022-07-23T03:23:32;12.48;;;9.57;;
22965;SDS011;11649;48.090;9.754;2022-07-23T03:26:00;10.25;;;7.80;;
22965;SDS011;11649;48.090;9.754;2022-07-23T03:28:27;12.25;;;9.07;;
22965;SDS011;11649;48.090;9.754;2022-07-23T03:30:55;13.30;;;9.52;;
22965;SDS011;11649;48.090;9.754;2022-07-23T03:33:23;13.23;;;8.27;;
22965;SDS011;11649;48.090;9.754;2022-07-23T03:35:50;9.85;;;8.55;;
22965;SDS011;11649;48.090;9.754;2022-07-23T03:38:17;9.10;;;7.97;;
22965;SDS011;11649;48.090;9.754;2022-07-23T03:40:44;8.65;;;7.78;;
22965;SDS011;11649;48.090;9.754;2022-07-23T03:43:11;10.02;;;9.02;;
22965;SDS011;11649;48.090;9.754;2022-07-23T03:45:38;10.43;;;7.68;;
22965;SDS011;11649;48.090;9.754;2022-07-23T03:48:05;9.30;;;8.40;;
22965;SDS011;11649;48.090;9.754;2022-07-23T03:50:32;10.23;;;8.10;;
22965;SDS011;11649;48.090;9.754;2022-07-23T03:52:59;11.98;;;8.90;;
22965;SDS011;11649;48.090;9.754;2022-07-23T03:55:26;11.48;;;8.57;;
22965;SDS011;11649;48.090;9.754;2022-07-23T03:57:53;11.25;;;9.00;;
22965;SDS011;11649;48.090;9.754;2022-07-23T04:00:19;9.15;;;8.00;;
22965;SDS011;11649;48.090;9.754;2022-07-23T04:02:46;10.23;;;8.60;;
22965;SDS011;11649;48.090;9.754;2022-07-23T04:05:13;9.65;;;8.60;;
22965;SDS011;11649;48.090;9.754;2022-07-23T04:07:40;8.52;;;7.72;;
22965;SDS011;11649;48.090;9.754;2022-07-23T04:10:07;10.65;;;7.88;;
22965;SDS011;11649;48.090;9.754;2022-07-23T04:12:34;9.07;;;8.02;;
22965;SDS011;11649;48.090;9.754;2022-07-23T04:15:01;8.60;;;7.70;;
22965;SDS011;11649;48.090;9.754;2022-07-23T04:17:28;10.02;;;8.93;;
22965;SDS011;11649;48.090;9.754;2022-07-23T04:19:55;11.93;;;9.25;;
22965;SDS011;11649;48.090;9.754;2022-07-23T04:22:22;11.45;;;9.27;;
22965;SDS011;11649;48.090;9.754;2022-07-23T04:24:49;12.65;;;8.45;;
22965;SDS011;11649;48.090;9.754;2022-07-23T04:27:16;10.02;;;8.20;;
22965;SDS011;11649;48.090;9.754;2022-07-23T04:29:43;13.90;;;9.95;;
22965;SDS011;11649;48.090;9.754;2022-07-23T04:32:10;11.40;;;9.48;;
22965;SDS011;11649;48.090;9.754;2022-07-23T04:34:37;11.00;;;9.65;;
22965;SDS011;11649;48.090;9.754;2022-07-23T04:37:04;10.40;;;8.98;;
22965;SDS011;11649;48.090;9.754;2022-07-23T04:39:31;10.73;;;8.75;;
22965;SDS011;11649;48.090;9.754;2022-07-23T04:41:58;14.25;;;8.75;;
22965;SDS011;11649;48.090;9.754;2022-07-23T04:44:25;17.98;;;9.13;;
22965;SDS011;11649;48.090;9.754;2022-07-23T04:46:52;13.15;;;9.93;;
22965;SDS011;11649;48.090;9.754;2022-07-23T04:49:19;11.68;;;9.18;;
22965;SDS011;11649;48.090;9.754;2022-07-23T04:51:46;15.45;;;10.18;;
22965;SDS011;11649;48.090;9.754;2022-07-23T04:54:13;13.23;;;10.18;;
22965;SDS011;11649;48.090;9.754;2022-07-23T04:56:39;13.38;;;10.10;;
22965;SDS011;11649;48.090;9.754;2022-07-23T04:59:06;12.10;;;9.65;;
22965;SDS011;11649;48.090;9.754;2022-07-23T05:01:33;11.90;;;9.40;;
22965;SDS011;11649;48.090;9.754;2022-07-23T05:04:00;13.32;;;9.38;;
22965;SDS011;11649;48.090;9.754;2022-07-23T05:06:27;13.25;;;9.13;;
22965;SDS011;11649;48.090;9.754;2022-07-23T05:08:53;10.35;;;8.77;;
22965;SDS011;11649;48.090;9.754;2022-07-23T05:11:21;9.90;;;8.90;;
22965;SDS011;11649;48.090;9.754;2022-07-23T05:13:52;11.15;;;9.30;;
22965;SDS011;11649;48.090;9.754;2022-07-23T05:16:19;9.95;;;8.95;;
22965;SDS011;11649;48.090;9.754;2022-07-23T05:18:46;11.63;;;9.23;;
22965;SDS011;11649;48.090;9.754;2022-07-23T05:21:12;11.52;;;9.82;;
22965;SDS011;11649;48.090;9.754;2022-07-23T05:23:39;12.05;;;9.27;;
22965;SDS011;11649;48.090;9.754;2022-07-23T05:26:06;11.75;;;9.27;;
22965;SDS011;11649;48.090;9.754;2022-07-23T05:28:33;9.50;;;8.50;;
22965;SDS011;11649;48.090;9.754;2022-07-23T05:31:00;13.32;;;9.48;;
22965;SDS011;11649;48.090;9.754;2022-07-23T05:33:27;11.60;;;8.77;;
22965;SDS011;11649;48.090;9.754;2022-07-23T05:35:54;13.20;;;10.05;;
22965;SDS011;11649;48.090;9.754;2022-07-23T05:38:27;14.15;;;10.98;;
22965;SDS011;11649;48.090;9.754;2022-07-23T05:40:54;18.38;;;10.98;;
22965;SDS011;11649;48.090;9.754;2022-07-23T05:43:21;13.60;;;10.52;;
22965;SDS011;11649;48.090;9.754;2022-07-23T05:45:48;14.57;;;10.68;;
22965;SDS011;11649;48.090;9.754;2022-07-23T05:48:15;14.82;;;10.70;;
22965;SDS011;11649;48.090;9.754;2022-07-23T05:50:42;19.08;;;10.45;;
22965;SDS011;11649;48.090;9.754;2022-07-23T05:53:09;13.05;;;9.43;;
22965;SDS011;11649;48.090;9.754;2022-07-23T05:55:35;14.88;;;9.20;;
22965;SDS011;11649;48.090;9.754;2022-07-23T05:58:02;11.52;;;8.88;;
22965;SDS011;11649;48.090;9.754;2022-07-23T06:00:29;11.88;;;9.15;;
22965;SDS011;11649;48.090;9.754;2022-07-23T06:02:56;10.57;;;9.00;;
22965;SDS011;11649;48.090;9.754;2022-07-23T06:05:23;11.35;;;8.60;;
22965;SDS011;11649;48.090;9.754;2022-07-23T06:07:54;11.80;;;9.20;;
22965;SDS011;11649;48.090;9.754;2022-07-23T06:10:21;12.70;;;10.02;;
22965;SDS011;11649;48.090;9.754;2022-07-23T06:12:47;10.80;;;8.65;;
22965;SDS011;11649;48.090;9.754;2022-07-23T06:15:14;10.05;;;8.80;;
22965;SDS011;11649;48.090;9.754;2022-07-23T06:17:41;8.50;;;7.60;;
22965;SDS011;11649;48.090;9.754;2022-07-23T06:20:09;10.80;;;8.63;;
22965;SDS011;11649;48.090;9.754;2022-07-23T06:22:37;9.65;;;8.65;;
22965;SDS011;11649;48.090;9.754;2022-07-23T06:25:04;10.80;;;9.20;;
22965;SDS011;11649;48.090;9.754;2022-07-23T06:27:44;10.13;;;9.13;;
22965;SDS011;11649;48.090;9.754;2022-07-23T06:30:12;9.95;;;8.82;;
22965;SDS011;11649;48.090;9.754;2022-07-23T06:32:42;10.55;;;8.48;;
22965;SDS011;11649;48.090;9.754;2022-07-23T06:35:10;9.57;;;8.20;;
22965;SDS011;11649;48.090;9.754;2022-07-23T06:37:36;8.90;;;8.00;;
22965;SDS011;11649;48.090;9.754;2022-07-23T06:40:03;11.70;;;8.50;;
22965;SDS011;11649;48.090;9.754;2022-07-23T06:42:31;10.07;;;8.60;;
22965;SDS011;11649;48.090;9.754;2022-07-23T06:44:58;9.63;;;8.63;;
22965;SDS011;11649;48.090;9.754;2022-07-23T06:47:25;11.38;;;8.40;;
22965;SDS011;11649;48.090;9.754;2022-07-23T06:49:52;11.38;;;9.57;;
22965;SDS011;11649;48.090;9.754;2022-07-23T06:52:19;10.35;;;9.00;;
22965;SDS011;11649;48.090;9.754;2022-07-23T06:54:46;11.23;;;9.23;;
22965;SDS011;11649;48.090;9.754;2022-07-23T06:57:13;10.63;;;9.50;;
22965;SDS011;11649;48.090;9.754;2022-07-23T06:59:39;12.63;;;10.68;;
22965;SDS011;11649;48.090;9.754;2022-07-23T07:02:07;11.13;;;10.02;;
22965;SDS011;11649;48.090;9.754;2022-07-23T07:04:34;12.88;;;10.77;;
22965;SDS011;11649;48.090;9.754;2022-07-23T07:07:01;12.35;;;8.80;;
22965;SDS011;11649;48.090;9.754;2022-07-23T07:09:28;14.68;;;10.55;;
22965;SDS011;11649;48.090;9.754;2022-07-23T07:11:55;10.82;;;9.73;;
22965;SDS011;11649;48.090;9.754;2022-07-23T07:14:22;11.02;;;9.77;;
22965;SDS011;11649;48.090;9.754;2022-07-23T07:16:49;11.70;;;9.90;;
22965;SDS011;11649;48.090;9.754;2022-07-23T07:19:16;10.45;;;9.40;;
22965;SDS011;11649;48.090;9.754;2022-07-23T07:21:43;11.13;;;9.80;;
22965;SDS011;11649;48.090;9.754;2022-07-23T07:24:10;13.23;;;9.57;;
22965;SDS011;11649;48.090;9.754;2022-07-23T07:26:37;10.48;;;8.70;;
22965;SDS011;11649;48.090;9.754;2022-07-23T07:29:05;9.55;;;8.48;;
22965;SDS011;11649;48.090;9.754;2022-07-23T07:31:32;9.60;;;7.65;;
22965;SDS011;11649;48.090;9.754;2022-07-23T07:33:59;8.93;;;7.60;;
22965;SDS011;11649;48.090;9.754;2022-07-23T07:36:26;8.63;;;7.82;;
22965;SDS011;11649;48.090;9.754;2022-07-23T07:38:53;8.60;;;7.72;;
22965;SDS011;11649;48.090;9.754;2022-07-23T07:41:20;9.52;;;8.45;;
22965;SDS011;11649;48.090;9.754;2022-07-23T07:43:50;9.85;;;8.85;;
22965;SDS011;11649;48.090;9.754;2022-07-23T07:46:17;11.70;;;8.82;;
22965;SDS011;11649;48.090;9.754;2022-07-23T07:48:44;10.43;;;9.23;;
22965;SDS011;11649;48.090;9.754;2022-07-23T07:51:10;11.18;;;8.85;;
22965;SDS011;11649;48.090;9.754;2022-07-23T07:53:37;9.95;;;8.93;;
22965;SDS011;11649;48.090;9.754;2022-07-23T07:56:05;12.88;;;9.05;;
22965;SDS011;11649;48.090;9.754;2022-07-23T07:58:33;9.80;;;8.80;;
22965;SDS011;11649;48.090;9.754;2022-07-23T08:01:00;10.13;;;8.82;;
22965;SDS011;11649;48.090;9.754;2022-07-23T08:03:28;11.15;;;8.73;;
22965;SDS011;11649;48.090;9.754;2022-07-23T08:05:56;9.35;;;8.43;;
22965;SDS011;11649;48.090;9.754;2022-07-23T08:08:23;9.13;;;8.00;;
22965;SDS011;11649;48.090;9.754;2022-07-23T08:10:50;9.23;;;8.30;;
22965;SDS011;11649;48.090;9.754;2022-07-23T08:13:17;9.35;;;8.05;;
22965;SDS011;11649;48.090;9.754;2022-07-23T08:15:43;9.10;;;8.20;;
22965;SDS011;11649;48.090;9.754;2022-07-23T08:18:12;10.50;;;8.23;;
22965;SDS011;11649;48.090;9.754;2022-07-23T08:20:39;8.88;;;7.88;;
22965;SDS011;11649;48.090;9.754;2022-07-23T08:23:06;10.25;;;8.00;;
22965;SDS011;11649;48.090;9.754;2022-07-23T08:25:36;9.50;;;8.23;;
22965;SDS011;11649;48.090;9.754;2022-07-23T08:28:06;9.55;;;8.52;;
22965;SDS011;11649;48.090;9.754;2022-07-23T08:30:35;11.05;;;8.15;;
22965;SDS011;11649;48.090;9.754;2022-07-23T08:33:06;9.27;;;7.97;;
22965;SDS011;11649;48.090;9.754;2022-07-23T08:35:59;9.75;;;8.50;;
22965;SDS011;11649;48.090;9.754;2022-07-23T08:38:29;9.00;;;7.90;;
22965;SDS011;11649;48.090;9.754;2022-07-23T08:40:56;8.68;;;7.68;;
22965;SDS011;11649;48.090;9.754;2022-07-23T08:43:25;11.38;;;7.55;;
22965;SDS011;11649;48.090;9.754;2022-07-23T08:45:54;8.90;;;7.45;;
22965;SDS011;11649;48.090;9.754;2022-07-23T08:48:24;9.35;;;7.93;;
22965;SDS011;11649;48.090;9.754;2022-07-23T08:50:53;12.13;;;7.90;;
22965;SDS011;11649;48.090;9.754;2022-07-23T08:53:24;9.82;;;8.10;;
22965;SDS011;11649;48.090;9.754;2022-07-23T08:55:56;8.95;;;7.95;;
22965;SDS011;11649;48.090;9.754;2022-07-23T08:58:24;9.00;;;8.10;;
22965;SDS011;11649;48.090;9.754;2022-07-23T09:00:54;9.85;;;8.10;;
22965;SDS011;11649;48.090;9.754;2022-07-23T09:03:27;10.13;;;8.40;;
22965;SDS011;11649;48.090;9.754;2022-07-23T09:05:56;8.55;;;7.65;;
22965;SDS011;11649;48.090;9.754;2022-07-23T09:08:25;9.55;;;8.48;;
22965;SDS011;11649;48.090;9.754;2022-07-23T09:11:02;11.75;;;8.98;;
22965;SDS011;11649;48.090;9.754;2022-07-23T09:13:41;9.90;;;8.90;;
22965;SDS011;11649;48.090;9.754;2022-07-23T09:16:12;10.40;;;9.38;;
22965;SDS011;11649;48.090;9.754;2022-07-23T09:18:52;13.00;;;9.87;;
22965;SDS011;11649;48.090;9.754;2022-07-23T09:21:24;10.30;;;9.13;;
22965;SDS011;11649;48.090;9.754;2022-07-23T09:23:58;10.95;;;9.80;;
22965;SDS011;11649;48.090;9.754;2022-07-23T09:31:44;12.00;;;10.13;;
22965;SDS011;11649;48.090;9.754;2022-07-23T09:34:35;11.05;;;9.93;;
22965;SDS011;11649;48.090;9.754;2022-07-23T09:37:11;11.45;;;9.93;;
22965;SDS011;11649;48.090;9.754;2022-07-23T09:39:40;10.80;;;9.38;;
22965;SDS011;11649;48.090;9.754;2022-07-23T09:42:16;10.45;;;9.32;;
22965;SDS011;11649;48.090;9.754;2022-07-23T09:44:45;12.65;;;9.40;;
22965;SDS011;11649;48.090;9.754;2022-07-23T09:47:13;12.05;;;9.27;;
22965;SDS011;11649;48.090;9.754;2022-07-23T09:49:41;11.60;;;10.25;;
22965;SDS011;11649;48.090;9.754;2022-07-23T09:52:26;13.13;;;9.95;;
22965;SDS011;11649;48.090;9.754;2022-07-23T09:55:02;10.77;;;9.13;;
22965;SDS011;11649;48.090;9.754;2022-07-23T09:57:31;11.55;;;9.90;;
22965;SDS011;11649;48.090;9.754;2022-07-23T10:00:06;11.45;;;9.77;;
22965;SDS011;11649;48.090;9.754;2022-07-23T10:02:35;10.02;;;9.02;;
22965;SDS011;11649;48.090;9.754;2022-07-23T10:05:03;10.30;;;9.07;;
22965;SDS011;11649;48.090;9.754;2022-07-23T10:07:31;10.88;;;9.32;;
22965;SDS011;11649;48.090;9.754;2022-07-23T10:10:01;9.80;;;8.65;;
22965;SDS011;11649;48.090;9.754;2022-07-23T10:12:29;12.52;;;8.50;;
22965;SDS011;11649;48.090;9.754;2022-07-23T10:15:01;10.65;;;8.80;;
22965;SDS011;11649;48.090;9.754;2022-07-23T10:17:29;11.65;;;8.55;;
22965;SDS011;11649;48.090;9.754;2022-07-23T10:19:56;11.20;;;8.90;;
22965;SDS011;11649;48.090;9.754;2022-07-23T10:22:24;10.93;;;8.65;;
22965;SDS011;11649;48.090;9.754;2022-07-23T10:36:02;9.57;;;8.57;;
22965;SDS011;11649;48.090;9.754;2022-07-23T10:41:38;10.35;;;8.80;;
22965;SDS011;11649;48.090;9.754;2022-07-23T10:49:47;11.18;;;8.95;;
22965;SDS011;11649;48.090;9.754;2022-07-23T10:54:42;10.30;;;8.50;;
22965;SDS011;11649;48.090;9.754;2022-07-23T10:57:10;9.40;;;8.50;;
22965;SDS011;11649;48.090;9.754;2022-07-23T11:02:41;10.68;;;8.43;;
22965;SDS011;11649;48.090;9.754;2022-07-23T11:05:13;11.15;;;8.38;;
22965;SDS011;11649;48.090;9.754;2022-07-23T11:26:46;9.85;;;8.38;;
22965;SDS011;11649;48.090;9.754;2022-07-23T11:31:59;9.30;;;8.38;;
22965;SDS011;11649;48.090;9.754;2022-07-23T11:36:58;12.05;;;9.02;;
22965;SDS011;11649;48.090;9.754;2022-07-23T11:39:27;12.10;;;9.05;;
22965;SDS011;11649;48.090;9.754;2022-07-23T11:41:55;11.35;;;9.40;;
22965;SDS011;11649;48.090;9.754;2022-07-23T11:44:29;10.95;;;8.88;;
22965;SDS011;11649;48.090;9.754;2022-07-23T11:47:02;9.80;;;8.52;;
22965;SDS011;11649;48.090;9.754;2022-07-23T11:49:31;12.23;;;9.00;;
22965;SDS011;11649;48.090;9.754;2022-07-23T11:54:40;10.75;;;8.90;;
22965;SDS011;11649;48.090;9.754;2022-07-23T11:57:24;10.88;;;8.73;;
22965;SDS011;11649;48.090;9.754;2022-07-23T11:59:53;12.35;;;9.27;;
22965;SDS011;11649;48.090;9.754;2022-07-23T12:02:22;11.38;;;9.35;;
22965;SDS011;11649;48.090;9.754;2022-07-23T12:04:51;11.23;;;8.35;;
22965;SDS011;11649;48.090;9.754;2022-07-23T12:10:00;11.55;;;9.23;;
22965;SDS011;11649;48.090;9.754;2022-07-23T12:12:40;9.32;;;8.43;;
22965;SDS011;11649;48.090;9.754;2022-07-23T12:15:08;10.50;;;9.30;;
22965;SDS011;11649;48.090;9.754;2022-07-23T12:17:37;10.43;;;8.18;;
22965;SDS011;11649;48.090;9.754;2022-07-23T12:20:06;9.85;;;8.75;;
22965;SDS011;11649;48.090;9.754;2022-07-23T12:22:37;9.63;;;8.68;;
22965;SDS011;11649;48.090;9.754;2022-07-23T12:25:11;10.65;;;8.77;;
22965;SDS011;11649;48.090;9.754;2022-07-23T12:27:39;10.05;;;8.35;;
22965;SDS011;11649;48.090;9.754;2022-07-23T12:30:25;12.00;;;8.45;;
22965;SDS011;11649;48.090;9.754;2022-07-23T12:32:59;10.15;;;9.15;;
22965;SDS011;11649;48.090;9.754;2022-07-23T12:35:34;10.20;;;9.15;;
22965;SDS011;11649;48.090;9.754;2022-07-23T12:38:05;10.93;;;9.10;;
22965;SDS011;11649;48.090;9.754;2022-07-23T12:40:37;10.13;;;8.63;;
22965;SDS011;11649;48.090;9.754;2022-07-23T12:43:21;11.60;;;9.55;;
22965;SDS011;11649;48.090;9.754;2022-07-23T12:50:55;9.27;;;8.30;;
22965;SDS011;11649;48.090;9.754;2022-07-23T12:53:31;10.32;;;9.23;;
22965;SDS011;11649;48.090;9.754;2022-07-23T13:06:42;9.90;;;8.90;;
22965;SDS011;11649;48.090;9.754;2022-07-23T13:09:17;9.48;;;8.52;;
22965;SDS011;11649;48.090;9.754;2022-07-23T13:11:52;9.05;;;8.18;;
22965;SDS011;11649;48.090;9.754;2022-07-23T13:14:22;9.77;;;7.85;;
22965;SDS011;11649;48.090;9.754;2022-07-23T13:16:52;9.52;;;8.48;;
22965;SDS011;11649;48.090;9.754;2022-07-23T13:19:22;9.25;;;8.35;;
22965;SDS011;11649;48.090;9.754;2022-07-23T13:22:09;8.98;;;7.85;;
22965;SDS011;11649;48.090;9.754;2022-07-23T13:24:37;8.88;;;7.97;;
22965;SDS011;11649;48.090;9.754;2022-07-23T13:27:05;9.77;;;8.10;;
22965;SDS011;11649;48.090;9.754;2022-07-23T13:29:38;11.30;;;7.90;;
22965;SDS011;11649;48.090;9.754;2022-07-23T13:32:04;8.48;;;7.65;;
22965;SDS011;11649;48.090;9.754;2022-07-23T13:34:36;8.63;;;7.70;;
22965;SDS011;11649;48.090;9.754;2022-07-23T13:37:06;9.07;;;7.50;;
22965;SDS011;11649;48.090;9.754;2022-07-23T13:39:33;7.90;;;7.05;;
22965;SDS011;11649;48.090;9.754;2022-07-23T13:42:03;8.85;;;7.40;;
22965;SDS011;11649;48.090;9.754;2022-07-23T13:44:33;9.05;;;7.65;;
22965;SDS011;11649;48.090;9.754;2022-07-23T13:47:01;8.38;;;7.57;;
22965;SDS011;11649;48.090;9.754;2022-07-23T13:49:29;9.30;;;8.40;;
22965;SDS011;11649;48.090;9.754;2022-07-23T13:51:56;7.60;;;6.78;;
22965;SDS011;11649;48.090;9.754;2022-07-23T13:54:24;8.07;;;7.18;;
22965;SDS011;11649;48.090;9.754;2022-07-23T13:56:53;9.30;;;7.97;;
22965;SDS011;11649;48.090;9.754;2022-07-23T13:59:20;8.80;;;7.60;;
22965;SDS011;11649;48.090;9.754;2022-07-23T14:01:51;10.07;;;7.13;;
22965;SDS011;11649;48.090;9.754;2022-07-23T14:04:39;8.63;;;7.45;;
22965;SDS011;11649;48.090;9.754;2022-07-23T14:07:07;9.20;;;8.20;;
22965;SDS011;11649;48.090;9.754;2022-07-23T14:09:34;7.90;;;7.20;;
22965;SDS011;11649;48.090;9.754;2022-07-23T14:12:01;7.35;;;6.60;;
22965;SDS011;11649;48.090;9.754;2022-07-23T14:14:29;8.23;;;7.43;;
22965;SDS011;11649;48.090;9.754;2022-07-23T14:16:56;10.50;;;7.80;;
22965;SDS011;11649;48.090;9.754;2022-07-23T14:19:23;8.00;;;7.20;;
22965;SDS011;11649;48.090;9.754;2022-07-23T14:21:50;7.32;;;6.63;;
22965;SDS011;11649;48.090;9.754;2022-07-23T14:24:17;8.40;;;7.57;;
22965;SDS011;11649;48.090;9.754;2022-07-23T14:26:44;7.97;;;6.85;;
22965;SDS011;11649;48.090;9.754;2022-07-23T14:29:11;8.20;;;7.32;;
22965;SDS011;11649;48.090;9.754;2022-07-23T14:31:38;8.77;;;7.90;;
22965;SDS011;11649;48.090;9.754;2022-07-23T14:34:05;8.82;;;7.57;;
22965;SDS011;11649;48.090;9.754;2022-07-23T14:36:33;7.43;;;6.72;;
22965;SDS011;11649;48.090;9.754;2022-07-23T14:39:00;8.95;;;7.60;;
22965;SDS011;11649;48.090;9.754;2022-07-23T14:41:28;9.38;;;7.32;;
22965;SDS011;11649;48.090;9.754;2022-07-23T14:43:55;8.18;;;7.20;;
22965;SDS011;11649;48.090;9.754;2022-07-23T14:46:22;8.05;;;6.82;;
22965;SDS011;11649;48.090;9.754;2022-07-23T14:48:49;8.00;;;7.20;;
22965;SDS011;11649;48.090;9.754;2022-07-23T14:51:16;8.07;;;7.25;;
22965;SDS011;11649;48.090;9.754;2022-07-23T14:53:44;8.55;;;6.72;;
22965;SDS011;11649;48.090;9.754;2022-07-23T14:56:11;7.57;;;6.45;;
22965;SDS011;11649;48.090;9.754;2022-07-23T14:58:40;8.55;;;7.68;;
22965;SDS011;11649;48.090;9.754;2022-07-23T15:01:08;7.05;;;6.43;;
22965;SDS011;11649;48.090;9.754;2022-07-23T15:03:37;8.70;;;7.22;;
22965;SDS011;11649;48.090;9.754;2022-07-23T15:06:08;8.00;;;7.20;;
22965;SDS011;11649;48.090;9.754;2022-07-23T15:08:37;8.98;;;7.75;;
22965;SDS011;11649;48.090;9.754;2022-07-23T15:11:05;8.35;;;7.50;;
22965;SDS011;11649;48.090;9.754;2022-07-23T15:13:36;10.20;;;8.48;;
22965;SDS011;11649;48.090;9.754;2022-07-23T15:16:04;9.00;;;7.70;;
22965;SDS011;11649;48.090;9.754;2022-07-23T15:18:35;9.95;;;8.77;;
22965;SDS011;11649;48.090;9.754;2022-07-23T15:21:03;8.98;;;8.00;;
22965;SDS011;11649;48.090;9.754;2022-07-23T15:23:30;10.77;;;8.40;;
22965;SDS011;11649;48.090;9.754;2022-07-23T15:25:58;13.00;;;7.90;;
22965;SDS011;11649;48.090;9.754;2022-07-23T15:28:25;10.40;;;8.57;;
22965;SDS011;11649;48.090;9.754;2022-07-23T15:30:53;9.52;;;8.63;;
22965;SDS011;11649;48.090;9.754;2022-07-23T15:33:19;10.35;;;9.32;;
22965;SDS011;11649;48.090;9.754;2022-07-23T15:35:47;9.45;;;8.52;;
22965;SDS011;11649;48.090;9.754;2022-07-23T15:38:14;9.35;;;8.43;;
22965;SDS011;11649;48.090;9.754;2022-07-23T15:40:50;10.02;;;9.02;;
22965;SDS011;11649;48.090;9.754;2022-07-23T15:43:17;9.27;;;8.25;;
22965;SDS011;11649;48.090;9.754;2022-07-23T15:45:45;8.85;;;8.05;;
22965;SDS011;11649;48.090;9.754;2022-07-23T15:48:13;11.43;;;8.45;;
22965;SDS011;11649;48.090;9.754;2022-07-23T15:50:40;9.65;;;8.65;;
22965;SDS011;11649;48.090;9.754;2022-07-23T15:53:11;9.98;;;9.02;;
22965;SDS011;11649;48.090;9.754;2022-07-23T15:55:41;11.10;;;9.38;;
22965;SDS011;11649;48.090;9.754;2022-07-23T15:58:12;11.88;;;8.57;;
22965;SDS011;11649;48.090;9.754;2022-07-23T16:00:39;10.55;;;9.55;;
22965;SDS011;11649;48.090;9.754;2022-07-23T16:03:08;9.20;;;8.30;;
22965;SDS011;11649;48.090;9.754;2022-07-23T16:05:35;9.40;;;8.45;;
22965;SDS011;11649;48.090;9.754;2022-07-23T16:08:03;10.43;;;8.60;;